sensor_id;sensor_type;location;lat;lon;timestamp;temperature;humidity
55771;DHT22;41687;-33.234;-60.334;2023-03-01T00:01:22;30.20;54.50
55771;DHT22;41687;-33.234;-60.334;2023-03-01T00:03:51;30.10;55.00
55771;DHT22;41687;-33.234;-60.334;2023-03-01T00:06:20;30.10;54.50
55771;DHT22;41687;-33.234;-60.334;2023-03-01T00:08:48;30.10;54.50
55771;DHT22;41687;-33.234;-60.334;2023-03-01T00:11:20;30.10;54.40
55771;DHT22;41687;-33.234;-60.334;2023-03-01T00:13:50;30.10;54.50
55771;DHT22;41687;-33.234;-60.334;2023-03-01T00:16:30;30.10;54.40
55771;DHT22;41687;-33.234;-60.334;2023-03-01T00:18:58;30.10;54.80
55771;DHT22;41687;-33.234;-60.334;2023-03-01T00:21:27;30.10;54.20
55771;DHT22;41687;-33.234;-60.334;2023-03-01T00:23:55;30.10;54.40
55771;DHT22;41687;-33.234;-60.334;2023-03-01T00:26:24;30.10;54.80
55771;DHT22;41687;-33.234;-60.334;2023-03-01T00:28:53;30.10;54.60
55771;DHT22;41687;-33.234;-60.334;2023-03-01T00:31:27;30.10;54.50
55771;DHT22;41687;-33.234;-60.334;2023-03-01T00:33:58;30.10;54.50
55771;DHT22;41687;-33.234;-60.334;2023-03-01T00:36:29;29.90;54.30
55771;DHT22;41687;-33.234;-60.334;2023-03-01T00:38:57;29.90;54.40
55771;DHT22;41687;-33.234;-60.334;2023-03-01T00:41:26;29.90;54.40
55771;DHT22;41687;-33.234;-60.334;2023-03-01T00:43:54;29.90;54.40
55771;DHT22;41687;-33.234;-60.334;2023-03-01T00:46:24;29.80;54.50
55771;DHT22;41687;-33.234;-60.334;2023-03-01T00:48:52;29.80;54.60
55771;DHT22;41687;-33.234;-60.334;2023-03-01T00:51:28;29.80;54.50
55771;DHT22;41687;-33.234;-60.334;2023-03-01T00:53:59;29.90;55.20
55771;DHT22;41687;-33.234;-60.334;2023-03-01T00:56:28;29.80;55.00
55771;DHT22;41687;-33.234;-60.334;2023-03-01T00:58:56;29.80;55.10
55771;DHT22;41687;-33.234;-60.334;2023-03-01T01:01:26;29.80;55.30
55771;DHT22;41687;-33.234;-60.334;2023-03-01T01:04:00;29.80;55.30
55771;DHT22;41687;-33.234;-60.334;2023-03-01T01:06:35;29.80;54.90
55771;DHT22;41687;-33.234;-60.334;2023-03-01T01:09:09;29.80;54.70
55771;DHT22;41687;-33.234;-60.334;2023-03-01T01:11:48;29.70;54.70
55771;DHT22;41687;-33.234;-60.334;2023-03-01T01:14:19;29.70;54.50
55771;DHT22;41687;-33.234;-60.334;2023-03-01T01:16:48;29.70;54.40
55771;DHT22;41687;-33.234;-60.334;2023-03-01T01:19:17;29.70;54.40
55771;DHT22;41687;-33.234;-60.334;2023-03-01T01:21:46;29.70;54.40
55771;DHT22;41687;-33.234;-60.334;2023-03-01T01:24:15;29.60;54.40
55771;DHT22;41687;-33.234;-60.334;2023-03-01T01:26:44;29.60;54.40
55771;DHT22;41687;-33.234;-60.334;2023-03-01T01:29:13;29.60;54.40
55771;DHT22;41687;-33.234;-60.334;2023-03-01T01:31:42;29.60;54.70
55771;DHT22;41687;-33.234;-60.334;2023-03-01T01:34:15;29.50;54.60
55771;DHT22;41687;-33.234;-60.334;2023-03-01T01:36:47;29.40;54.90
55771;DHT22;41687;-33.234;-60.334;2023-03-01T01:39:15;29.40;55.10
55771;DHT22;41687;-33.234;-60.334;2023-03-01T01:41:43;29.40;55.00
55771;DHT22;41687;-33.234;-60.334;2023-03-01T01:44:26;29.40;55.10
55771;DHT22;41687;-33.234;-60.334;2023-03-01T01:46:55;29.30;55.90
55771;DHT22;41687;-33.234;-60.334;2023-03-01T01:52:18;29.20;55.80
55771;DHT22;41687;-33.234;-60.334;2023-03-01T01:55:05;29.20;56.30
55771;DHT22;41687;-33.234;-60.334;2023-03-01T01:57:55;29.10;56.80
55771;DHT22;41687;-33.234;-60.334;2023-03-01T02:00:27;29.10;57.10
55771;DHT22;41687;-33.234;-60.334;2023-03-01T02:02:58;29.10;56.40
55771;DHT22;41687;-33.234;-60.334;2023-03-01T02:08:17;29.00;56.20
55771;DHT22;41687;-33.234;-60.334;2023-03-01T02:10:47;29.00;56.90
55771;DHT22;41687;-33.234;-60.334;2023-03-01T02:13:16;29.00;56.50
55771;DHT22;41687;-33.234;-60.334;2023-03-01T02:15:44;28.90;56.50
55771;DHT22;41687;-33.234;-60.334;2023-03-01T02:18:14;28.90;57.10
55771;DHT22;41687;-33.234;-60.334;2023-03-01T02:23:16;28.90;57.20
55771;DHT22;41687;-33.234;-60.334;2023-03-01T02:25:52;28.80;57.80
55771;DHT22;41687;-33.234;-60.334;2023-03-01T02:28:24;28.80;58.40
55771;DHT22;41687;-33.234;-60.334;2023-03-01T02:30:53;28.70;57.30
55771;DHT22;41687;-33.234;-60.334;2023-03-01T02:33:40;28.70;57.70
55771;DHT22;41687;-33.234;-60.334;2023-03-01T02:36:17;28.60;57.40
55771;DHT22;41687;-33.234;-60.334;2023-03-01T02:38:48;28.60;58.00
55771;DHT22;41687;-33.234;-60.334;2023-03-01T02:41:18;28.50;57.60
55771;DHT22;41687;-33.234;-60.334;2023-03-01T02:43:46;28.50;58.00
55771;DHT22;41687;-33.234;-60.334;2023-03-01T02:46:23;28.40;58.70
55771;DHT22;41687;-33.234;-60.334;2023-03-01T02:48:54;28.20;60.10
55771;DHT22;41687;-33.234;-60.334;2023-03-01T02:54:39;28.20;58.50
55771;DHT22;41687;-33.234;-60.334;2023-03-01T02:56:58;28.10;58.80
55771;DHT22;41687;-33.234;-60.334;2023-03-01T02:59:31;28.10;58.60
55771;DHT22;41687;-33.234;-60.334;2023-03-01T03:04:49;28.10;58.00
55771;DHT22;41687;-33.234;-60.334;2023-03-01T03:07:16;28.00;58.40
55771;DHT22;41687;-33.234;-60.334;2023-03-01T03:09:46;28.00;58.40
55771;DHT22;41687;-33.234;-60.334;2023-03-01T03:12:13;28.00;58.20
55771;DHT22;41687;-33.234;-60.334;2023-03-01T03:14:41;27.90;58.50
55771;DHT22;41687;-33.234;-60.334;2023-03-01T03:17:09;27.90;58.20
55771;DHT22;41687;-33.234;-60.334;2023-03-01T03:19:36;28.00;57.40
55771;DHT22;41687;-33.234;-60.334;2023-03-01T03:22:04;28.00;57.30
55771;DHT22;41687;-33.234;-60.334;2023-03-01T03:24:32;28.00;56.50
55771;DHT22;41687;-33.234;-60.334;2023-03-01T03:27:05;28.10;56.30
55771;DHT22;41687;-33.234;-60.334;2023-03-01T03:29:33;28.10;56.10
55771;DHT22;41687;-33.234;-60.334;2023-03-01T03:32:01;28.10;56.20
55771;DHT22;41687;-33.234;-60.334;2023-03-01T03:34:29;28.00;56.10
55771;DHT22;41687;-33.234;-60.334;2023-03-01T03:36:57;27.90;56.10
55771;DHT22;41687;-33.234;-60.334;2023-03-01T03:39:26;27.90;56.20
55771;DHT22;41687;-33.234;-60.334;2023-03-01T03:41:55;27.90;56.30
55771;DHT22;41687;-33.234;-60.334;2023-03-01T03:44:22;27.90;56.10
55771;DHT22;41687;-33.234;-60.334;2023-03-01T03:46:50;28.00;56.00
55771;DHT22;41687;-33.234;-60.334;2023-03-01T03:49:17;27.90;56.10
55771;DHT22;41687;-33.234;-60.334;2023-03-01T03:51:46;27.90;56.20
55771;DHT22;41687;-33.234;-60.334;2023-03-01T03:54:13;27.90;55.90
55771;DHT22;41687;-33.234;-60.334;2023-03-01T03:56:41;27.90;55.80
55771;DHT22;41687;-33.234;-60.334;2023-03-01T03:59:08;27.90;55.80
55771;DHT22;41687;-33.234;-60.334;2023-03-01T04:01:38;27.90;55.70
55771;DHT22;41687;-33.234;-60.334;2023-03-01T04:04:06;27.90;55.80
55771;DHT22;41687;-33.234;-60.334;2023-03-01T04:06:34;27.80;55.80
55771;DHT22;41687;-33.234;-60.334;2023-03-01T04:09:02;27.70;56.00
55771;DHT22;41687;-33.234;-60.334;2023-03-01T04:11:30;27.70;55.90
55771;DHT22;41687;-33.234;-60.334;2023-03-01T04:13:58;27.60;56.10
55771;DHT22;41687;-33.234;-60.334;2023-03-01T04:16:26;27.60;56.30
55771;DHT22;41687;-33.234;-60.334;2023-03-01T04:18:54;27.60;56.30
55771;DHT22;41687;-33.234;-60.334;2023-03-01T04:21:22;27.60;56.60
55771;DHT22;41687;-33.234;-60.334;2023-03-01T04:23:50;27.60;56.50
55771;DHT22;41687;-33.234;-60.334;2023-03-01T04:26:20;27.60;56.40
55771;DHT22;41687;-33.234;-60.334;2023-03-01T04:28:47;27.50;56.70
55771;DHT22;41687;-33.234;-60.334;2023-03-01T04:31:19;27.50;56.40
55771;DHT22;41687;-33.234;-60.334;2023-03-01T04:33:53;27.50;56.70
55771;DHT22;41687;-33.234;-60.334;2023-03-01T04:36:27;27.50;56.40
55771;DHT22;41687;-33.234;-60.334;2023-03-01T04:38:55;27.40;56.60
55771;DHT22;41687;-33.234;-60.334;2023-03-01T04:41:24;27.40;56.40
55771;DHT22;41687;-33.234;-60.334;2023-03-01T04:43:53;27.30;56.60
55771;DHT22;41687;-33.234;-60.334;2023-03-01T04:46:21;27.30;56.70
55771;DHT22;41687;-33.234;-60.334;2023-03-01T04:48:49;27.30;56.80
55771;DHT22;41687;-33.234;-60.334;2023-03-01T04:51:16;27.30;56.90
55771;DHT22;41687;-33.234;-60.334;2023-03-01T04:53:45;27.20;56.90
55771;DHT22;41687;-33.234;-60.334;2023-03-01T04:56:14;27.20;57.20
55771;DHT22;41687;-33.234;-60.334;2023-03-01T04:58:42;27.20;57.20
55771;DHT22;41687;-33.234;-60.334;2023-03-01T05:01:17;27.20;57.20
55771;DHT22;41687;-33.234;-60.334;2023-03-01T05:03:48;27.20;57.40
55771;DHT22;41687;-33.234;-60.334;2023-03-01T05:06:18;27.10;57.30
55771;DHT22;41687;-33.234;-60.334;2023-03-01T05:08:46;27.10;57.50
55771;DHT22;41687;-33.234;-60.334;2023-03-01T05:11:14;27.10;57.30
55771;DHT22;41687;-33.234;-60.334;2023-03-01T05:13:41;27.10;57.30
55771;DHT22;41687;-33.234;-60.334;2023-03-01T05:16:10;27.00;57.20
55771;DHT22;41687;-33.234;-60.334;2023-03-01T05:18:41;27.00;57.40
55771;DHT22;41687;-33.234;-60.334;2023-03-01T05:21:11;27.00;57.30
55771;DHT22;41687;-33.234;-60.334;2023-03-01T05:23:39;27.00;57.80
55771;DHT22;41687;-33.234;-60.334;2023-03-01T05:26:08;27.00;57.40
55771;DHT22;41687;-33.234;-60.334;2023-03-01T05:28:36;26.80;57.90
55771;DHT22;41687;-33.234;-60.334;2023-03-01T05:31:04;26.80;57.70
55771;DHT22;41687;-33.234;-60.334;2023-03-01T05:33:38;26.80;57.90
55771;DHT22;41687;-33.234;-60.334;2023-03-01T05:36:07;26.80;58.20
55771;DHT22;41687;-33.234;-60.334;2023-03-01T05:38:37;26.80;58.20
55771;DHT22;41687;-33.234;-60.334;2023-03-01T05:41:04;26.70;58.00
55771;DHT22;41687;-33.234;-60.334;2023-03-01T05:43:32;26.80;58.30
55771;DHT22;41687;-33.234;-60.334;2023-03-01T05:46:03;26.70;58.30
55771;DHT22;41687;-33.234;-60.334;2023-03-01T05:48:30;26.70;58.50
55771;DHT22;41687;-33.234;-60.334;2023-03-01T05:51:00;26.60;58.60
55771;DHT22;41687;-33.234;-60.334;2023-03-01T05:53:27;26.60;58.90
55771;DHT22;41687;-33.234;-60.334;2023-03-01T05:55:55;26.60;59.10
55771;DHT22;41687;-33.234;-60.334;2023-03-01T05:58:23;26.60;58.80
55771;DHT22;41687;-33.234;-60.334;2023-03-01T06:00:51;26.60;58.60
55771;DHT22;41687;-33.234;-60.334;2023-03-01T06:03:18;26.60;58.60
55771;DHT22;41687;-33.234;-60.334;2023-03-01T06:05:46;26.60;58.80
55771;DHT22;41687;-33.234;-60.334;2023-03-01T06:08:14;26.50;58.90
55771;DHT22;41687;-33.234;-60.334;2023-03-01T06:10:42;26.50;59.30
55771;DHT22;41687;-33.234;-60.334;2023-03-01T06:13:09;26.50;59.40
55771;DHT22;41687;-33.234;-60.334;2023-03-01T06:15:38;26.40;59.50
55771;DHT22;41687;-33.234;-60.334;2023-03-01T06:18:05;26.40;59.90
55771;DHT22;41687;-33.234;-60.334;2023-03-01T06:20:33;26.40;60.10
55771;DHT22;41687;-33.234;-60.334;2023-03-01T06:23:00;26.40;60.20
55771;DHT22;41687;-33.234;-60.334;2023-03-01T06:25:28;26.30;60.00
55771;DHT22;41687;-33.234;-60.334;2023-03-01T06:27:56;26.20;60.30
55771;DHT22;41687;-33.234;-60.334;2023-03-01T06:30:25;26.20;60.30
55771;DHT22;41687;-33.234;-60.334;2023-03-01T06:32:53;26.20;60.50
55771;DHT22;41687;-33.234;-60.334;2023-03-01T06:35:28;26.20;60.50
55771;DHT22;41687;-33.234;-60.334;2023-03-01T06:38:00;26.20;60.30
55771;DHT22;41687;-33.234;-60.334;2023-03-01T06:40:29;26.20;60.60
55771;DHT22;41687;-33.234;-60.334;2023-03-01T06:42:58;26.10;60.70
55771;DHT22;41687;-33.234;-60.334;2023-03-01T06:45:26;26.10;60.60
55771;DHT22;41687;-33.234;-60.334;2023-03-01T06:48:05;26.00;60.90
55771;DHT22;41687;-33.234;-60.334;2023-03-01T06:50:35;25.90;62.10
55771;DHT22;41687;-33.234;-60.334;2023-03-01T06:53:03;25.80;61.50
55771;DHT22;41687;-33.234;-60.334;2023-03-01T06:55:31;25.70;61.80
55771;DHT22;41687;-33.234;-60.334;2023-03-01T06:58:00;25.80;62.00
55771;DHT22;41687;-33.234;-60.334;2023-03-01T07:00:28;25.80;62.20
55771;DHT22;41687;-33.234;-60.334;2023-03-01T07:03:00;25.80;62.20
55771;DHT22;41687;-33.234;-60.334;2023-03-01T07:05:29;25.70;62.90
55771;DHT22;41687;-33.234;-60.334;2023-03-01T07:07:56;25.80;62.30
55771;DHT22;41687;-33.234;-60.334;2023-03-01T07:10:25;25.90;62.10
55771;DHT22;41687;-33.234;-60.334;2023-03-01T07:12:59;25.90;62.50
55771;DHT22;41687;-33.234;-60.334;2023-03-01T07:15:27;25.80;63.30
55771;DHT22;41687;-33.234;-60.334;2023-03-01T07:17:56;25.90;62.90
55771;DHT22;41687;-33.234;-60.334;2023-03-01T07:20:24;25.80;64.20
55771;DHT22;41687;-33.234;-60.334;2023-03-01T07:22:53;25.60;63.90
55771;DHT22;41687;-33.234;-60.334;2023-03-01T07:25:21;25.50;64.40
55771;DHT22;41687;-33.234;-60.334;2023-03-01T07:27:52;25.40;64.40
55771;DHT22;41687;-33.234;-60.334;2023-03-01T07:30:21;25.40;64.80
55771;DHT22;41687;-33.234;-60.334;2023-03-01T07:32:49;25.50;64.70
55771;DHT22;41687;-33.234;-60.334;2023-03-01T07:35:17;25.50;64.20
55771;DHT22;41687;-33.234;-60.334;2023-03-01T07:37:45;25.60;64.40
55771;DHT22;41687;-33.234;-60.334;2023-03-01T07:40:12;25.60;64.30
55771;DHT22;41687;-33.234;-60.334;2023-03-01T07:42:40;25.40;66.00
55771;DHT22;41687;-33.234;-60.334;2023-03-01T07:45:09;25.40;65.20
55771;DHT22;41687;-33.234;-60.334;2023-03-01T07:47:36;25.40;65.00
55771;DHT22;41687;-33.234;-60.334;2023-03-01T07:50:04;25.30;65.90
55771;DHT22;41687;-33.234;-60.334;2023-03-01T07:52:32;25.20;66.20
55771;DHT22;41687;-33.234;-60.334;2023-03-01T07:55:00;25.20;66.40
55771;DHT22;41687;-33.234;-60.334;2023-03-01T07:57:27;25.20;66.40
55771;DHT22;41687;-33.234;-60.334;2023-03-01T07:59:55;25.20;66.40
55771;DHT22;41687;-33.234;-60.334;2023-03-01T08:02:22;25.30;65.70
55771;DHT22;41687;-33.234;-60.334;2023-03-01T08:04:50;25.30;65.60
55771;DHT22;41687;-33.234;-60.334;2023-03-01T08:07:18;25.30;65.00
55771;DHT22;41687;-33.234;-60.334;2023-03-01T08:09:45;25.40;65.00
55771;DHT22;41687;-33.234;-60.334;2023-03-01T08:12:13;25.40;65.00
55771;DHT22;41687;-33.234;-60.334;2023-03-01T08:14:43;25.40;64.80
55771;DHT22;41687;-33.234;-60.334;2023-03-01T08:17:13;25.40;65.00
55771;DHT22;41687;-33.234;-60.334;2023-03-01T08:19:40;25.30;65.10
55771;DHT22;41687;-33.234;-60.334;2023-03-01T08:22:08;25.30;64.80
55771;DHT22;41687;-33.234;-60.334;2023-03-01T08:24:36;25.30;64.80
55771;DHT22;41687;-33.234;-60.334;2023-03-01T08:27:03;25.20;64.50
55771;DHT22;41687;-33.234;-60.334;2023-03-01T08:29:34;25.20;64.60
55771;DHT22;41687;-33.234;-60.334;2023-03-01T08:32:02;25.20;64.70
55771;DHT22;41687;-33.234;-60.334;2023-03-01T08:34:29;25.10;64.20
55771;DHT22;41687;-33.234;-60.334;2023-03-01T08:36:58;25.20;63.80
55771;DHT22;41687;-33.234;-60.334;2023-03-01T08:39:25;25.30;64.00
55771;DHT22;41687;-33.234;-60.334;2023-03-01T08:41:54;25.30;63.20
55771;DHT22;41687;-33.234;-60.334;2023-03-01T08:44:21;25.30;63.00
55771;DHT22;41687;-33.234;-60.334;2023-03-01T08:46:51;25.40;62.90
55771;DHT22;41687;-33.234;-60.334;2023-03-01T08:49:21;25.30;62.80
55771;DHT22;41687;-33.234;-60.334;2023-03-01T08:51:48;25.20;62.30
55771;DHT22;41687;-33.234;-60.334;2023-03-01T08:54:19;25.30;62.40
55771;DHT22;41687;-33.234;-60.334;2023-03-01T08:56:47;25.40;62.00
55771;DHT22;41687;-33.234;-60.334;2023-03-01T08:59:16;25.40;62.10
55771;DHT22;41687;-33.234;-60.334;2023-03-01T09:01:44;25.30;62.40
55771;DHT22;41687;-33.234;-60.334;2023-03-01T09:04:12;25.30;62.90
55771;DHT22;41687;-33.234;-60.334;2023-03-01T09:06:42;25.20;63.10
55771;DHT22;41687;-33.234;-60.334;2023-03-01T09:09:17;25.20;63.00
55771;DHT22;41687;-33.234;-60.334;2023-03-01T09:11:45;25.20;63.80
55771;DHT22;41687;-33.234;-60.334;2023-03-01T09:14:13;25.20;63.40
55771;DHT22;41687;-33.234;-60.334;2023-03-01T09:16:42;25.20;63.80
55771;DHT22;41687;-33.234;-60.334;2023-03-01T09:19:09;25.20;64.10
55771;DHT22;41687;-33.234;-60.334;2023-03-01T09:21:38;25.20;64.30
55771;DHT22;41687;-33.234;-60.334;2023-03-01T09:24:15;25.10;64.60
55771;DHT22;41687;-33.234;-60.334;2023-03-01T09:26:43;25.00;64.90
55771;DHT22;41687;-33.234;-60.334;2023-03-01T09:29:14;24.90;65.00
55771;DHT22;41687;-33.234;-60.334;2023-03-01T09:31:41;24.80;66.00
55771;DHT22;41687;-33.234;-60.334;2023-03-01T09:34:10;24.70;66.20
55771;DHT22;41687;-33.234;-60.334;2023-03-01T09:36:38;24.50;66.60
55771;DHT22;41687;-33.234;-60.334;2023-03-01T09:39:05;24.40;66.30
55771;DHT22;41687;-33.234;-60.334;2023-03-01T09:47:00;24.60;67.50
55771;DHT22;41687;-33.234;-60.334;2023-03-01T09:49:32;24.70;66.10
55771;DHT22;41687;-33.234;-60.334;2023-03-01T09:52:19;24.70;66.10
55771;DHT22;41687;-33.234;-60.334;2023-03-01T09:54:52;24.70;67.00
55771;DHT22;41687;-33.234;-60.334;2023-03-01T09:57:42;24.70;66.50
55771;DHT22;41687;-33.234;-60.334;2023-03-01T10:03:13;24.60;67.70
55771;DHT22;41687;-33.234;-60.334;2023-03-01T10:06:06;24.60;66.70
55771;DHT22;41687;-33.234;-60.334;2023-03-01T10:11:32;24.70;65.10
55771;DHT22;41687;-33.234;-60.334;2023-03-01T10:14:31;24.60;65.10
55771;DHT22;41687;-33.234;-60.334;2023-03-01T10:19:43;24.50;65.30
55771;DHT22;41687;-33.234;-60.334;2023-03-01T10:24:41;24.60;65.00
55771;DHT22;41687;-33.234;-60.334;2023-03-01T10:30:42;24.50;65.00
55771;DHT22;41687;-33.234;-60.334;2023-03-01T10:33:04;24.60;65.40
55771;DHT22;41687;-33.234;-60.334;2023-03-01T10:35:36;24.70;64.20
55771;DHT22;41687;-33.234;-60.334;2023-03-01T10:38:05;24.70;63.60
55771;DHT22;41687;-33.234;-60.334;2023-03-01T10:40:34;24.70;63.70
55771;DHT22;41687;-33.234;-60.334;2023-03-01T10:43:05;24.70;63.60
55771;DHT22;41687;-33.234;-60.334;2023-03-01T10:45:36;24.70;63.70
55771;DHT22;41687;-33.234;-60.334;2023-03-01T10:48:05;24.70;63.70
55771;DHT22;41687;-33.234;-60.334;2023-03-01T10:50:33;24.70;63.80
55771;DHT22;41687;-33.234;-60.334;2023-03-01T10:53:03;24.80;63.50
55771;DHT22;41687;-33.234;-60.334;2023-03-01T10:55:37;24.90;63.30
55771;DHT22;41687;-33.234;-60.334;2023-03-01T10:58:17;25.40;62.80
55771;DHT22;41687;-33.234;-60.334;2023-03-01T11:00:57;25.80;62.40
55771;DHT22;41687;-33.234;-60.334;2023-03-01T11:03:37;26.10;61.80
55771;DHT22;41687;-33.234;-60.334;2023-03-01T11:08:47;26.50;61.30
55771;DHT22;41687;-33.234;-60.334;2023-03-01T11:11:53;26.40;60.50
55771;DHT22;41687;-33.234;-60.334;2023-03-01T11:14:26;26.60;60.00
55771;DHT22;41687;-33.234;-60.334;2023-03-01T11:17:11;27.00;59.70
55771;DHT22;41687;-33.234;-60.334;2023-03-01T11:19:40;27.20;58.60
55771;DHT22;41687;-33.234;-60.334;2023-03-01T11:22:17;27.40;58.80
55771;DHT22;41687;-33.234;-60.334;2023-03-01T11:24:52;27.70;58.70
55771;DHT22;41687;-33.234;-60.334;2023-03-01T11:30:13;27.70;59.10
55771;DHT22;41687;-33.234;-60.334;2023-03-01T11:32:47;27.70;58.60
55771;DHT22;41687;-33.234;-60.334;2023-03-01T11:35:25;27.80;59.40
55771;DHT22;41687;-33.234;-60.334;2023-03-01T11:37:59;27.80;58.80
55771;DHT22;41687;-33.234;-60.334;2023-03-01T11:41:05;28.00;59.30
55771;DHT22;41687;-33.234;-60.334;2023-03-01T11:44:00;28.20;58.30
55771;DHT22;41687;-33.234;-60.334;2023-03-01T12:00:25;28.70;58.60
55771;DHT22;41687;-33.234;-60.334;2023-03-01T12:03:33;29.10;58.30
55771;DHT22;41687;-33.234;-60.334;2023-03-01T12:09:26;29.90;57.50
55771;DHT22;41687;-33.234;-60.334;2023-03-01T12:28:15;30.90;55.80
55771;DHT22;41687;-33.234;-60.334;2023-03-01T12:36:53;31.20;54.10
55771;DHT22;41687;-33.234;-60.334;2023-03-01T12:46:07;31.90;53.50
55771;DHT22;41687;-33.234;-60.334;2023-03-01T12:51:33;32.20;53.10
55771;DHT22;41687;-33.234;-60.334;2023-03-01T12:54:27;32.40;54.20
55771;DHT22;41687;-33.234;-60.334;2023-03-01T12:57:01;32.50;53.40
55771;DHT22;41687;-33.234;-60.334;2023-03-01T13:08:36;32.60;54.70
55771;DHT22;41687;-33.234;-60.334;2023-03-01T13:11:17;32.80;52.90
55771;DHT22;41687;-33.234;-60.334;2023-03-01T13:13:45;33.00;52.50
55771;DHT22;41687;-33.234;-60.334;2023-03-01T13:16:40;32.90;53.90
55771;DHT22;41687;-33.234;-60.334;2023-03-01T13:19:32;33.20;52.50
55771;DHT22;41687;-33.234;-60.334;2023-03-01T13:22:26;33.40;52.10
55771;DHT22;41687;-33.234;-60.334;2023-03-01T13:25:11;32.50;52.50
55771;DHT22;41687;-33.234;-60.334;2023-03-01T13:27:40;32.70;53.20
55771;DHT22;41687;-33.234;-60.334;2023-03-01T13:33:40;32.60;52.80
55771;DHT22;41687;-33.234;-60.334;2023-03-01T13:36:10;32.20;53.30
55771;DHT22;41687;-33.234;-60.334;2023-03-01T13:39:29;32.70;54.00
55771;DHT22;41687;-33.234;-60.334;2023-03-01T13:41:59;33.10;52.70
55771;DHT22;41687;-33.234;-60.334;2023-03-01T13:44:31;33.10;54.20
55771;DHT22;41687;-33.234;-60.334;2023-03-01T13:47:20;33.20;54.10
55771;DHT22;41687;-33.234;-60.334;2023-03-01T13:52:52;33.50;53.70
55771;DHT22;41687;-33.234;-60.334;2023-03-01T13:58:00;34.10;52.60
55771;DHT22;41687;-33.234;-60.334;2023-03-01T14:00:39;34.60;53.70
55771;DHT22;41687;-33.234;-60.334;2023-03-01T14:03:17;34.80;51.20
55771;DHT22;41687;-33.234;-60.334;2023-03-01T14:06:21;34.50;51.60
55771;DHT22;41687;-33.234;-60.334;2023-03-01T14:09:02;34.60;51.00
55771;DHT22;41687;-33.234;-60.334;2023-03-01T14:19:33;35.30;52.00
55771;DHT22;41687;-33.234;-60.334;2023-03-01T14:24:55;35.50;51.10
55771;DHT22;41687;-33.234;-60.334;2023-03-01T14:27:26;35.80;53.00
55771;DHT22;41687;-33.234;-60.334;2023-03-01T14:32:39;35.40;50.70
55771;DHT22;41687;-33.234;-60.334;2023-03-01T14:35:30;35.40;53.70
55771;DHT22;41687;-33.234;-60.334;2023-03-01T14:37:59;35.50;52.30
55771;DHT22;41687;-33.234;-60.334;2023-03-01T14:40:35;35.60;53.40
55771;DHT22;41687;-33.234;-60.334;2023-03-01T14:43:10;35.90;52.30
55771;DHT22;41687;-33.234;-60.334;2023-03-01T14:45:38;35.70;52.70
55771;DHT22;41687;-33.234;-60.334;2023-03-01T14:48:07;35.60;53.30
55771;DHT22;41687;-33.234;-60.334;2023-03-01T14:50:41;36.00;53.20
55771;DHT22;41687;-33.234;-60.334;2023-03-01T14:53:18;36.20;51.70
55771;DHT22;41687;-33.234;-60.334;2023-03-01T14:55:56;36.50;51.00
55771;DHT22;41687;-33.234;-60.334;2023-03-01T14:58:25;36.60;51.10
55771;DHT22;41687;-33.234;-60.334;2023-03-01T15:00:57;36.70;52.80
55771;DHT22;41687;-33.234;-60.334;2023-03-01T15:03:40;36.80;51.70
55771;DHT22;41687;-33.234;-60.334;2023-03-01T15:06:11;36.60;51.10
55771;DHT22;41687;-33.234;-60.334;2023-03-01T15:08:46;36.10;51.60
55771;DHT22;41687;-33.234;-60.334;2023-03-01T15:13:43;36.30;51.50
55771;DHT22;41687;-33.234;-60.334;2023-03-01T15:16:17;36.40;51.50
55771;DHT22;41687;-33.234;-60.334;2023-03-01T15:18:45;36.60;50.80
55771;DHT22;41687;-33.234;-60.334;2023-03-01T15:21:25;36.60;50.90
55771;DHT22;41687;-33.234;-60.334;2023-03-01T15:24:20;36.50;51.40
55771;DHT22;41687;-33.234;-60.334;2023-03-01T15:26:57;36.70;51.30
55771;DHT22;41687;-33.234;-60.334;2023-03-01T15:29:30;36.70;49.90
55771;DHT22;41687;-33.234;-60.334;2023-03-01T15:32:03;36.60;51.10
55771;DHT22;41687;-33.234;-60.334;2023-03-01T15:34:34;36.20;51.20
55771;DHT22;41687;-33.234;-60.334;2023-03-01T15:37:05;36.40;51.50
55771;DHT22;41687;-33.234;-60.334;2023-03-01T15:42:13;36.10;51.30
55771;DHT22;41687;-33.234;-60.334;2023-03-01T15:44:43;36.20;51.30
55771;DHT22;41687;-33.234;-60.334;2023-03-01T15:47:25;36.40;51.60
55771;DHT22;41687;-33.234;-60.334;2023-03-01T15:49:55;36.60;50.40
55771;DHT22;41687;-33.234;-60.334;2023-03-01T15:55:03;36.70;49.60
55771;DHT22;41687;-33.234;-60.334;2023-03-01T15:57:31;36.70;49.20
55771;DHT22;41687;-33.234;-60.334;2023-03-01T15:59:59;36.70;50.90
55771;DHT22;41687;-33.234;-60.334;2023-03-01T16:02:27;36.70;50.50
55771;DHT22;41687;-33.234;-60.334;2023-03-01T16:04:55;36.70;51.00
55771;DHT22;41687;-33.234;-60.334;2023-03-01T16:07:23;36.70;49.20
55771;DHT22;41687;-33.234;-60.334;2023-03-01T16:09:55;36.10;49.60
55771;DHT22;41687;-33.234;-60.334;2023-03-01T16:12:22;36.40;50.60
55771;DHT22;41687;-33.234;-60.334;2023-03-01T16:14:51;36.40;49.60
55771;DHT22;41687;-33.234;-60.334;2023-03-01T16:17:20;36.10;49.80
55771;DHT22;41687;-33.234;-60.334;2023-03-01T16:19:48;36.00;50.00
55771;DHT22;41687;-33.234;-60.334;2023-03-01T16:22:16;36.10;49.70
55771;DHT22;41687;-33.234;-60.334;2023-03-01T16:24:43;36.20;49.50
55771;DHT22;41687;-33.234;-60.334;2023-03-01T16:27:11;36.20;49.10
55771;DHT22;41687;-33.234;-60.334;2023-03-01T16:29:39;36.00;49.30
55771;DHT22;41687;-33.234;-60.334;2023-03-01T16:32:06;35.90;49.00
55771;DHT22;41687;-33.234;-60.334;2023-03-01T16:34:34;35.90;49.60
55771;DHT22;41687;-33.234;-60.334;2023-03-01T16:37:01;35.80;50.50
55771;DHT22;41687;-33.234;-60.334;2023-03-01T16:39:29;36.00;50.00
55771;DHT22;41687;-33.234;-60.334;2023-03-01T16:41:58;35.80;48.70
55771;DHT22;41687;-33.234;-60.334;2023-03-01T16:44:27;35.80;49.10
55771;DHT22;41687;-33.234;-60.334;2023-03-01T16:46:54;35.50;49.20
55771;DHT22;41687;-33.234;-60.334;2023-03-01T16:49:22;35.60;48.70
55771;DHT22;41687;-33.234;-60.334;2023-03-01T16:51:49;35.50;48.10
55771;DHT22;41687;-33.234;-60.334;2023-03-01T16:54:17;35.50;48.60
55771;DHT22;41687;-33.234;-60.334;2023-03-01T16:56:44;35.60;48.80
55771;DHT22;41687;-33.234;-60.334;2023-03-01T16:59:13;35.40;49.10
55771;DHT22;41687;-33.234;-60.334;2023-03-01T17:01:40;35.50;49.40
55771;DHT22;41687;-33.234;-60.334;2023-03-01T17:04:11;35.50;48.60
55771;DHT22;41687;-33.234;-60.334;2023-03-01T17:06:40;35.50;48.20
55771;DHT22;41687;-33.234;-60.334;2023-03-01T17:09:06;35.40;48.90
55771;DHT22;41687;-33.234;-60.334;2023-03-01T17:11:35;35.40;49.40
55771;DHT22;41687;-33.234;-60.334;2023-03-01T17:14:03;35.30;48.80
55771;DHT22;41687;-33.234;-60.334;2023-03-01T17:16:31;35.20;48.10
55771;DHT22;41687;-33.234;-60.334;2023-03-01T17:18:58;35.20;49.00
55771;DHT22;41687;-33.234;-60.334;2023-03-01T17:21:26;35.30;49.50